Marthasville, Missouri
Current Conditions -  °F | °C
As of 7:55 AM on Sunday 25 Jan 2015 (Local Time) from KFYG Reporting Station
Overcast Overcast  
Wind Chill: 44°   Ceiling: 1200
Heat Index: 46°   Visibility: 10mi
Dew Point: 41°   Wind: 6mph
Humidity: 81%   Direction: 310°NW
Pressure: 29.58"   Gusts: NA
Location:  38.63°N, 91.06°W
Report Text: KFYG 251355Z AUTO 31005KT 10SM OVC012 08/05 A2958 RMK AO2
Loading
Personal Weather Stations






























Interactive Weather Map New forecast layout! Learn more

10-Day Weather Forecast

Advertisements
Track Severe Weather on mobile